Yuedian 58 — BYFE — position and weather

sailwx.info

Track history (hours):
 
Tides and Currents Weather Stations Pressure Air Temp Water Temp Dewpoint Dewpoint Depression Visibility Wind Speed Wind Dir Waves Ship Positions

Yuedian 58

Last reported at 2016-Dec-08 05:33 UTC. Time now 2016-Dec-08 16:11 UTC.
Position N 21°01' E 110°47'.

Length 190 m; draft 6.9 m.

Type: Ship. MMSI: 414008000.

Date/timePositionNaut miles runAvg speedWind from/ knotsBaromVisibWave heightAir tempDewpointWater temp
2016-Dec-08 05:33N 21°01' E 110°47'1111.5
2016-Dec-08 04:33N 21°04' E 110°35'7 7.4
2016-Dec-08 03:33N 21°05' E 110°27'9 9.0
2016-Dec-08 02:33N 21°14' E 110°26'5 5.2
2016-Dec-08 01:32N 21°19' E 110°25'0 0.0
2016-Dec-08 00:32N 21°19' E 110°25'0 0.0
2016-Dec-07 23:32N 21°19' E 110°25'0 0.0
2016-Dec-07 22:32N 21°19' E 110°25'0 0.0
2016-Dec-07 21:17N 21°19' E 110°25'0 0.0
2016-Dec-07 19:26N 21°19' E 110°25'0 0.0
2016-Dec-07 18:32N 21°19' E 110°25'0 0.0
2016-Dec-07 17:26N 21°19' E 110°25'0 0.0
2016-Dec-07 16:14N 21°19' E 110°25'0 0.0
2016-Dec-07 15:26N 21°19' E 110°25'0 0.0
2016-Dec-07 13:32N 21°19' E 110°25'0 0.0
2016-Dec-07 12:26N 21°19' E 110°25'0 0.0
2016-Dec-07 11:29N 21°19' E 110°25'0 0.0
2016-Dec-07 10:32N 21°19' E 110°25'0 0.0
2016-Dec-07 08:32N 21°19' E 110°25'0 0.0
2016-Dec-07 07:29N 21°19' E 110°25'0 0.0
2016-Dec-07 06:32N 21°19' E 110°25'0 0.0
2016-Dec-07 05:32N 21°19' E 110°25'0 0.0
2016-Dec-07 04:26N 21°19' E 110°25'0 0.0
2016-Dec-07 03:32N 21°19' E 110°25'0 0.0
2016-Dec-07 02:32N 21°19' E 110°25'0 0.0
2016-Dec-07 00:29N 21°19' E 110°25'0 0.0
2016-Dec-06 23:32N 21°19' E 110°25'0 0.0
2016-Dec-06 22:32N 21°19' E 110°25'0 0.0
2016-Dec-06 21:32N 21°19' E 110°25'0 0.0
2016-Dec-06 20:32N 21°19' E 110°25'0 0.0
2016-Dec-06 18:32N 21°19' E 110°25'0 0.0
2016-Dec-06 17:29N 21°19' E 110°25'0 0.0
2016-Dec-06 16:32N 21°19' E 110°25'0 0.0
2016-Dec-06 15:26N 21°19' E 110°25'0 0.0
2016-Dec-06 14:32N 21°19' E 110°25'0 0.0
2016-Dec-06 13:32N 21°19' E 110°25'0 0.0
2016-Dec-06 12:32N 21°19' E 110°25'0 0.0
2016-Dec-06 11:29N 21°19' E 110°25'0 0.0
2016-Dec-06 10:20N 21°19' E 110°25'0 0.0
2016-Dec-06 09:32N 21°19' E 110°25'0 0.0
2016-Dec-06 07:20N 21°19' E 110°25'0 0.0
2016-Dec-06 06:26N 21°19' E 110°25'0 0.0
2016-Dec-06 05:23N 21°19' E 110°25'0 0.0
2016-Dec-06 04:29N 21°19' E 110°25'0 0.0
2016-Dec-06 03:11N 21°19' E 110°25'0 0.0
2016-Dec-06 02:32N 21°19' E 110°25'0 0.0
2016-Dec-06 01:29N 21°19' E 110°25'0 0.0
2016-Dec-06 00:32N 21°19' E 110°25'2 1.6
2016-Dec-05 23:33N 21°17' E 110°25'7 7.5
2016-Dec-05 22:33N 21°10' E 110°25'8 8.3
2016-Dec-05 21:33N 21°05' E 110°32'1111.0
2016-Dec-05 20:31N 21°02' E 110°44'3 0.3
2016-Dec-05 11:27N 21°00' E 110°46'0 0.0
2016-Dec-05 10:33N 21°00' E 110°46'0 0.1
2016-Dec-05 09:24N 21°00' E 110°46'8 7.4
2016-Dec-05 08:19N 21°01' E 110°54'42212.7
2016-Dec-03 23:06N 23°42' E 117°57'813.6
2016-Dec-03 22:33N 23°45' E 118°04'1413.4
2016-Dec-03 21:32N 23°56' E 118°13'1313.5
2016-Dec-03 20:33N 24°04' E 118°24'1413.8
2016-Dec-03 19:32N 24°13' E 118°37'1514.0
2016-Dec-03 18:28N 24°24' E 118°48'6513.2
2016-Dec-03 13:30N 25°06' E 119°42'  
2016-Nov-30 11:33N 38°28' E 121°06'1212.3
2016-Nov-30 10:33N 38°34' E 120°52'  
Track history (hours):
 
Tides and Currents Weather Stations Pressure Air Temp Water Temp Dewpoint Dewpoint Depression Visibility Wind Speed Wind Dir Waves Ship Positions

Yuedian 58

Last reported at 2016-Dec-08 05:33 UTC. Time now 2016-Dec-08 16:11 UTC.
Position N 21°01' E 110°47'.

Length 190 m; draft 6.9 m.

Type: Ship. MMSI: 414008000.

Date/timePositionNaut miles runAvg speedWind from/ knotsBaromVisibWave heightAir tempDewpointWater temp
2016-Dec-08 05:33N 21°01' E 110°47'1111.5
2016-Dec-08 04:33N 21°04' E 110°35'7 7.4
2016-Dec-08 03:33N 21°05' E 110°27'9 9.0
2016-Dec-08 02:33N 21°14' E 110°26'5 5.2
2016-Dec-08 01:32N 21°19' E 110°25'0 0.0
2016-Dec-08 00:32N 21°19' E 110°25'0 0.0
2016-Dec-07 23:32N 21°19' E 110°25'0 0.0
2016-Dec-07 22:32N 21°19' E 110°25'0 0.0
2016-Dec-07 21:17N 21°19' E 110°25'0 0.0
2016-Dec-07 19:26N 21°19' E 110°25'0 0.0
2016-Dec-07 18:32N 21°19' E 110°25'0 0.0
2016-Dec-07 17:26N 21°19' E 110°25'0 0.0
2016-Dec-07 16:14N 21°19' E 110°25'0 0.0
2016-Dec-07 15:26N 21°19' E 110°25'0 0.0
2016-Dec-07 13:32N 21°19' E 110°25'0 0.0
2016-Dec-07 12:26N 21°19' E 110°25'0 0.0
2016-Dec-07 11:29N 21°19' E 110°25'0 0.0
2016-Dec-07 10:32N 21°19' E 110°25'0 0.0
2016-Dec-07 08:32N 21°19' E 110°25'0 0.0
2016-Dec-07 07:29N 21°19' E 110°25'0 0.0
2016-Dec-07 06:32N 21°19' E 110°25'0 0.0
2016-Dec-07 05:32N 21°19' E 110°25'0 0.0
2016-Dec-07 04:26N 21°19' E 110°25'0 0.0
2016-Dec-07 03:32N 21°19' E 110°25'0 0.0
2016-Dec-07 02:32N 21°19' E 110°25'0 0.0
2016-Dec-07 00:29N 21°19' E 110°25'0 0.0
2016-Dec-06 23:32N 21°19' E 110°25'0 0.0
2016-Dec-06 22:32N 21°19' E 110°25'0 0.0
2016-Dec-06 21:32N 21°19' E 110°25'0 0.0
2016-Dec-06 20:32N 21°19' E 110°25'0 0.0
2016-Dec-06 18:32N 21°19' E 110°25'0 0.0
2016-Dec-06 17:29N 21°19' E 110°25'0 0.0
2016-Dec-06 16:32N 21°19' E 110°25'0 0.0
2016-Dec-06 15:26N 21°19' E 110°25'0 0.0
2016-Dec-06 14:32N 21°19' E 110°25'0 0.0
2016-Dec-06 13:32N 21°19' E 110°25'0 0.0
2016-Dec-06 12:32N 21°19' E 110°25'0 0.0
2016-Dec-06 11:29N 21°19' E 110°25'0 0.0
2016-Dec-06 10:20N 21°19' E 110°25'0 0.0
2016-Dec-06 09:32N 21°19' E 110°25'0 0.0
2016-Dec-06 07:20N 21°19' E 110°25'0 0.0
2016-Dec-06 06:26N 21°19' E 110°25'0 0.0
2016-Dec-06 05:23N 21°19' E 110°25'0 0.0
2016-Dec-06 04:29N 21°19' E 110°25'0 0.0
2016-Dec-06 03:11N 21°19' E 110°25'0 0.0
2016-Dec-06 02:32N 21°19' E 110°25'0 0.0
2016-Dec-06 01:29N 21°19' E 110°25'0 0.0
2016-Dec-06 00:32N 21°19' E 110°25'2 1.6
2016-Dec-05 23:33N 21°17' E 110°25'7 7.5
2016-Dec-05 22:33N 21°10' E 110°25'8 8.3
2016-Dec-05 21:33N 21°05' E 110°32'1111.0
2016-Dec-05 20:31N 21°02' E 110°44'3 0.3
2016-Dec-05 11:27N 21°00' E 110°46'0 0.0
2016-Dec-05 10:33N 21°00' E 110°46'0 0.1
2016-Dec-05 09:24N 21°00' E 110°46'8 7.4
2016-Dec-05 08:19N 21°01' E 110°54'42212.7
2016-Dec-03 23:06N 23°42' E 117°57'813.6
2016-Dec-03 22:33N 23°45' E 118°04'1413.4
2016-Dec-03 21:32N 23°56' E 118°13'1313.5
2016-Dec-03 20:33N 24°04' E 118°24'1413.8
2016-Dec-03 19:32N 24°13' E 118°37'1514.0
2016-Dec-03 18:28N 24°24' E 118°48'6513.2
2016-Dec-03 13:30N 25°06' E 119°42'  
2016-Nov-30 11:33N 38°28' E 121°06'1212.3
2016-Nov-30 10:33N 38°34' E 120°52'  

Dump ship's entire track history